createdAt,value
2022-09-27T01:42:25.611Z,12.73
2022-09-27T01:47:39.927Z,12.68
2022-09-27T01:53:18.396Z,12.70
2022-09-27T01:58:48.460Z,12.77
2022-09-27T02:03:53.489Z,12.81
2022-09-27T02:09:24.962Z,12.80
2022-09-27T02:14:42.875Z,12.69
2022-09-27T02:20:06.843Z,12.69
2022-09-27T02:25:41.894Z,12.68
2022-09-27T02:30:43.551Z,12.62
2022-09-27T02:35:57.142Z,12.62
2022-09-27T02:40:58.746Z,12.63
2022-09-27T02:46:14.813Z,12.63
2022-09-27T02:51:41.158Z,12.58
2022-09-27T02:56:54.887Z,12.61
2022-09-27T03:02:49.410Z,12.58
2022-09-27T03:08:04.189Z,12.50
2022-09-27T03:13:06.372Z,12.28
2022-09-27T03:18:08.435Z,12.27
2022-09-27T03:23:28.745Z,12.12
2022-09-27T03:28:30.989Z,12.20
2022-09-27T03:33:33.589Z,12.05
2022-09-27T03:38:40.462Z,11.88
2022-09-27T03:43:46.156Z,11.66
2022-09-27T03:48:47.898Z,11.46
2022-09-27T03:53:50.524Z,11.28
2022-09-27T03:58:52.181Z,11.25
2022-09-27T04:03:54.288Z,11.27
2022-09-27T04:09:05.090Z,11.23
2022-09-27T04:14:25.715Z,11.31
2022-09-27T04:19:47.218Z,11.46
2022-09-27T04:24:48.969Z,11.32
2022-09-27T04:30:01.638Z,11.26
2022-09-27T04:35:56.501Z,11.30
2022-09-27T04:41:02.073Z,11.20
2022-09-27T04:46:07.760Z,11.10
2022-09-27T04:51:10.194Z,11.07
2022-09-27T04:56:13.028Z,11.08
2022-09-27T05:01:14.744Z,11.10
2022-09-27T05:06:36.624Z,10.97
2022-09-27T05:11:53.187Z,10.92
2022-09-27T05:16:58.196Z,10.99
2022-09-27T05:22:23.013Z,11.13
2022-09-27T05:27:26.221Z,10.95
2022-09-27T05:32:29.177Z,10.88
2022-09-27T05:37:55.825Z,10.96
2022-09-27T05:42:57.538Z,10.91
2022-09-27T05:47:59.470Z,11.04
2022-09-27T05:53:02.585Z,11.05
2022-09-27T05:58:06.902Z,11.07
2022-09-27T06:03:19.955Z,11.11
2022-09-27T06:08:40.701Z,11.33
2022-09-27T06:13:46.642Z,11.50
2022-09-27T06:18:49.124Z,11.54
2022-09-27T06:23:54.177Z,11.44
2022-09-27T06:29:02.545Z,11.54
2022-09-27T06:34:05.816Z,11.49
2022-09-27T06:39:07.532Z,11.60
2022-09-27T06:44:21.467Z,11.60
2022-09-27T06:49:46.179Z,11.62
2022-09-27T06:54:50.443Z,11.72
2022-09-27T07:00:10.935Z,11.97
2022-09-27T07:05:59.026Z,12.55
2022-09-27T07:11:19.627Z,12.47
2022-09-27T07:16:21.297Z,12.50
2022-09-27T07:21:23.145Z,12.61
2022-09-27T07:26:25.270Z,12.65
2022-09-27T07:31:27.004Z,12.84
2022-09-27T07:36:30.101Z,13.12
2022-09-27T07:41:33.191Z,13.13
2022-09-27T07:46:35.339Z,12.96
2022-09-27T07:51:54.496Z,12.99
2022-09-27T07:57:23.643Z,13.02
2022-09-27T08:02:28.036Z,13.09
2022-09-27T08:07:31.544Z,13.24
2022-09-27T08:12:33.395Z,13.18
2022-09-27T08:17:35.233Z,13.26
2022-09-27T08:22:45.787Z,13.28
2022-09-27T08:28:13.951Z,13.41
2022-09-27T08:33:55.589Z,13.37
2022-09-27T08:39:36.819Z,13.55
2022-09-27T08:45:03.413Z,13.63
2022-09-27T08:50:39.949Z,13.77
2022-09-27T09:03:32.109Z,13.94
2022-09-27T09:09:57.961Z,14.00
2022-09-27T09:15:22.777Z,13.65
2022-09-27T09:20:40.344Z,13.27
2022-09-27T09:26:00.706Z,13.12
2022-09-27T09:31:32.483Z,13.61
2022-09-27T09:36:43.647Z,13.73
2022-09-27T09:41:54.114Z,13.71
2022-09-27T09:47:01.563Z,13.58
2022-09-27T09:52:12.714Z,13.62
2022-09-27T09:57:37.624Z,13.58
2022-09-27T10:02:56.965Z,13.81
2022-09-27T10:08:04.852Z,13.77
2022-09-27T10:13:29.565Z,13.66
2022-09-27T10:18:49.040Z,14.17
2022-09-27T10:24:12.402Z,13.96
2022-09-27T10:29:59.660Z,14.08
2022-09-27T10:35:31.869Z,13.88
2022-09-27T10:41:06.781Z,13.07
2022-09-27T10:46:29.656Z,12.04
2022-09-27T10:52:01.396Z,11.97
2022-09-27T10:57:34.693Z,12.06
2022-09-27T11:02:45.061Z,12.39
2022-09-27T11:08:00.091Z,12.71
2022-09-27T11:13:32.678Z,12.67
2022-09-27T11:18:53.702Z,12.35
2022-09-27T11:24:11.226Z,12.30
2022-09-27T11:29:41.826Z,12.26
2022-09-27T11:35:20.262Z,12.36
2022-09-27T11:41:13.311Z,12.22
2022-09-27T11:53:01.290Z,12.08
2022-09-27T11:58:26.416Z,12.54
2022-09-27T12:04:05.587Z,12.69
2022-09-27T12:09:14.492Z,12.65
2022-09-27T12:21:12.863Z,12.57
2022-09-27T12:26:44.549Z,12.62
2022-09-27T12:31:54.672Z,12.65
2022-09-27T12:37:08.903Z,13.17
2022-09-27T12:42:21.320Z,13.65
2022-09-27T12:47:34.954Z,13.54
2022-09-27T12:52:43.558Z,13.19
2022-09-27T12:58:09.850Z,12.75
2022-09-27T13:03:30.657Z,13.10
2022-09-27T13:09:13.680Z,12.52
2022-09-27T13:14:22.922Z,12.54
2022-09-27T13:19:44.367Z,12.60
2022-09-27T13:24:54.020Z,12.87
2022-09-27T13:30:35.485Z,13.43
2022-09-27T13:35:37.444Z,13.63
2022-09-27T13:40:45.033Z,13.37
2022-09-27T13:46:05.774Z,13.59
2022-09-27T13:51:35.155Z,13.54
2022-09-27T13:56:36.986Z,13.56
2022-09-27T14:01:51.219Z,13.29
2022-09-27T14:07:00.007Z,13.20
2022-09-27T14:12:10.332Z,13.26
2022-09-27T14:17:12.821Z,13.18
2022-09-27T14:22:18.157Z,12.99
2022-09-27T14:27:38.279Z,13.07
2022-09-27T14:33:28.498Z,12.87
2022-09-27T14:38:38.143Z,12.72
2022-09-27T14:43:50.536Z,12.56
2022-09-27T14:48:53.214Z,12.53
2022-09-27T14:53:59.012Z,12.55
2022-09-27T14:59:03.692Z,12.46
2022-09-27T15:04:08.389Z,12.36
2022-09-27T15:09:14.206Z,12.31
2022-09-27T15:14:19.890Z,12.11
2022-09-27T15:19:27.835Z,12.08
2022-09-27T15:24:47.704Z,12.03
2022-09-27T15:29:51.388Z,12.02
2022-09-27T15:34:54.655Z,11.95
2022-09-27T15:40:08.834Z,11.89
2022-09-27T15:45:38.956Z,11.84
2022-09-27T15:50:41.438Z,11.75
2022-09-27T15:55:45.100Z,11.91
2022-09-27T16:01:02.665Z,11.70
2022-09-27T16:06:04.469Z,11.72
2022-09-27T16:11:06.437Z,11.61
2022-09-27T16:16:14.604Z,11.56
2022-09-27T16:21:16.822Z,11.50
2022-09-27T16:26:19.789Z,11.32
2022-09-27T16:31:21.614Z,11.06
2022-09-27T16:36:23.377Z,10.88
2022-09-27T16:41:25.036Z,10.59
2022-09-27T16:46:27.384Z,10.51
2022-09-27T16:51:47.984Z,10.24
2022-09-27T16:56:52.165Z,10.14
2022-09-27T17:01:57.490Z,10.04
2022-09-27T17:06:59.378Z,10.02
2022-09-27T17:12:01.016Z,9.99
2022-09-27T17:17:02.782Z,9.77
2022-09-27T17:22:04.351Z,9.88
2022-09-27T17:27:05.913Z,9.78
2022-09-27T17:32:08.784Z,9.63
2022-09-27T17:37:11.025Z,9.56
2022-09-27T17:42:12.708Z,9.58
2022-09-27T17:47:33.123Z,9.50
2022-09-27T17:52:35.094Z,9.50
2022-09-27T17:57:36.761Z,9.51
2022-09-27T18:02:38.405Z,9.60
2022-09-27T18:07:40.228Z,9.58
2022-09-27T18:12:43.401Z,9.66
2022-09-27T18:17:45.841Z,9.60
2022-09-27T18:22:47.417Z,9.77
2022-09-27T18:27:51.516Z,9.70
2022-09-27T18:32:53.156Z,9.62
2022-09-27T18:37:54.779Z,9.68
2022-09-27T18:42:56.420Z,9.69
2022-09-27T18:47:57.989Z,9.63
2022-09-27T18:52:59.527Z,9.55
2022-09-27T18:58:01.013Z,9.57
2022-09-27T19:03:02.889Z,9.57
2022-09-27T19:08:04.456Z,9.49
2022-09-27T19:13:06.406Z,9.58
2022-09-27T19:18:08.015Z,9.50
2022-09-27T19:23:09.631Z,9.48
2022-09-27T19:28:14.250Z,9.53
2022-09-27T19:33:15.939Z,9.53
2022-09-27T19:38:20.148Z,9.53
2022-09-27T19:43:21.753Z,9.48
2022-09-27T19:48:23.604Z,9.41
2022-09-27T19:53:29.851Z,9.34
2022-09-27T19:58:35.419Z,9.26
2022-09-27T20:03:39.839Z,9.10
2022-09-27T20:08:42.845Z,9.25
2022-09-27T20:13:44.988Z,9.26
2022-09-27T20:18:49.674Z,9.27
2022-09-27T20:23:53.494Z,9.28
2022-09-27T20:28:57.495Z,9.27
2022-09-27T20:34:00.430Z,9.13
2022-09-27T20:39:04.796Z,9.01
2022-09-27T20:44:11.761Z,8.90
2022-09-27T20:49:18.580Z,8.75
2022-09-27T20:54:20.371Z,8.69
2022-09-27T20:59:23.445Z,8.53
2022-09-27T21:04:25.138Z,8.44
2022-09-27T21:09:26.764Z,8.37
2022-09-27T21:14:28.270Z,8.29
2022-09-27T21:19:29.802Z,8.22
2022-09-27T21:24:31.329Z,8.07
2022-09-27T21:29:32.934Z,7.92
2022-09-27T21:34:34.481Z,7.84
2022-09-27T21:39:36.052Z,7.83
2022-09-27T21:44:37.561Z,7.82
2022-09-27T21:49:39.100Z,7.94
2022-09-27T21:54:40.604Z,7.83
2022-09-27T21:59:42.117Z,7.84
2022-09-27T22:04:43.818Z,8.00
2022-09-27T22:09:45.401Z,8.02
2022-09-27T22:14:47.800Z,8.01
2022-09-27T22:19:49.383Z,8.05
2022-09-27T22:24:50.940Z,7.89
2022-09-27T22:29:52.479Z,8.02
2022-09-27T22:34:54.042Z,8.00
2022-09-27T22:39:56.344Z,8.10
2022-09-27T22:44:57.907Z,8.00
2022-09-27T22:49:59.442Z,8.04
2022-09-27T22:55:01.013Z,8.09
2022-09-27T23:00:02.764Z,8.22
2022-09-27T23:05:04.573Z,8.14
2022-09-27T23:10:07.059Z,7.95
2022-09-27T23:15:09.152Z,7.90
2022-09-27T23:20:10.664Z,7.81
2022-09-27T23:25:12.280Z,7.88
2022-09-27T23:30:21.632Z,8.11
2022-09-27T23:35:23.359Z,7.88
2022-09-27T23:40:25.242Z,7.78
2022-09-27T23:45:27.711Z,7.74
2022-09-27T23:50:29.253Z,7.82
2022-09-27T23:55:30.750Z,7.91
